sensor_id;sensor_type;location;lat;lon;timestamp;noise_LAeq;noise_LA_min;noise_LA_max;noise_LA01;noise_LA95
66459;Laerm;70605;52.550;4.730;2023-06-10T00:00:08;43.75;42.44;45.19;;
66459;Laerm;70605;52.550;4.730;2023-06-10T00:00:22;43.71;42.70;45.22;;
66459;Laerm;70605;52.550;4.730;2023-06-10T00:00:32;43.70;42.72;45.71;;
66459;Laerm;70605;52.550;4.730;2023-06-10T00:00:44;43.54;42.63;45.51;;
66459;Laerm;70605;52.550;4.730;2023-06-10T00:00:54;43.86;42.62;50.13;;
66459;Laerm;70605;52.550;4.730;2023-06-10T00:01:06;43.53;42.26;44.82;;
66459;Laerm;70605;52.550;4.730;2023-06-10T00:01:16;43.74;42.60;45.79;;
66459;Laerm;70605;52.550;4.730;2023-06-10T00:01:26;43.44;42.35;47.64;;
66459;Laerm;70605;52.550;4.730;2023-06-10T00:01:37;43.34;42.36;44.46;;
66459;Laerm;70605;52.550;4.730;2023-06-10T00:01:48;43.36;42.21;44.50;;
66459;Laerm;70605;52.550;4.730;2023-06-10T00:01:58;43.35;42.35;44.23;;
66459;Laerm;70605;52.550;4.730;2023-06-10T00:02:09;43.45;42.44;44.71;;
66459;Laerm;70605;52.550;4.730;2023-06-10T00:02:20;43.40;42.47;44.70;;
66459;Laerm;70605;52.550;4.730;2023-06-10T00:02:30;43.50;42.69;44.99;;
66459;Laerm;70605;52.550;4.730;2023-06-10T00:02:40;43.37;42.54;44.75;;
66459;Laerm;70605;52.550;4.730;2023-06-10T00:02:51;43.39;42.33;44.84;;
66459;Laerm;70605;52.550;4.730;2023-06-10T00:03:01;43.43;42.49;44.42;;
66459;Laerm;70605;52.550;4.730;2023-06-10T00:03:11;44.11;42.70;54.08;;
66459;Laerm;70605;52.550;4.730;2023-06-10T00:03:23;43.57;42.60;45.46;;
66459;Laerm;70605;52.550;4.730;2023-06-10T00:03:34;43.58;42.40;45.42;;
66459;Laerm;70605;52.550;4.730;2023-06-10T00:03:44;43.50;42.56;44.80;;
66459;Laerm;70605;52.550;4.730;2023-06-10T00:03:54;43.55;42.51;44.66;;
66459;Laerm;70605;52.550;4.730;2023-06-10T00:04:04;43.70;42.48;46.27;;
66459;Laerm;70605;52.550;4.730;2023-06-10T00:04:15;43.64;42.63;45.13;;
66459;Laerm;70605;52.550;4.730;2023-06-10T00:04:26;43.54;42.36;45.39;;
66459;Laerm;70605;52.550;4.730;2023-06-10T00:04:37;43.58;42.49;44.72;;
66459;Laerm;70605;52.550;4.730;2023-06-10T00:04:47;43.77;42.68;46.17;;
66459;Laerm;70605;52.550;4.730;2023-06-10T00:04:58;43.61;42.45;45.72;;
66459;Laerm;70605;52.550;4.730;2023-06-10T00:05:08;43.54;42.65;45.48;;
66459;Laerm;70605;52.550;4.730;2023-06-10T00:05:19;43.76;42.79;46.65;;
66459;Laerm;70605;52.550;4.730;2023-06-10T00:05:31;43.63;42.36;45.48;;
66459;Laerm;70605;52.550;4.730;2023-06-10T00:05:41;43.45;42.42;46.39;;
66459;Laerm;70605;52.550;4.730;2023-06-10T00:05:52;43.48;42.42;44.79;;
66459;Laerm;70605;52.550;4.730;2023-06-10T00:06:02;43.48;42.50;44.75;;
66459;Laerm;70605;52.550;4.730;2023-06-10T00:06:12;43.48;42.47;44.66;;
66459;Laerm;70605;52.550;4.730;2023-06-10T00:06:23;43.52;42.61;44.64;;
66459;Laerm;70605;52.550;4.730;2023-06-10T00:06:34;43.61;42.59;45.67;;
66459;Laerm;70605;52.550;4.730;2023-06-10T00:06:47;43.91;42.81;49.19;;
66459;Laerm;70605;52.550;4.730;2023-06-10T00:06:59;43.67;42.74;45.36;;
66459;Laerm;70605;52.550;4.730;2023-06-10T00:07:10;43.57;42.42;45.65;;
66459;Laerm;70605;52.550;4.730;2023-06-10T00:07:20;43.48;42.50;44.89;;
66459;Laerm;70605;52.550;4.730;2023-06-10T00:07:31;43.55;42.33;45.30;;
66459;Laerm;70605;52.550;4.730;2023-06-10T00:07:41;43.55;42.44;46.13;;
66459;Laerm;70605;52.550;4.730;2023-06-10T00:07:51;43.64;42.70;44.84;;
66459;Laerm;70605;52.550;4.730;2023-06-10T00:08:05;43.73;42.49;45.48;;
66459;Laerm;70605;52.550;4.730;2023-06-10T00:08:20;43.49;42.36;45.18;;
66459;Laerm;70605;52.550;4.730;2023-06-10T00:08:30;43.49;42.59;45.35;;
66459;Laerm;70605;52.550;4.730;2023-06-10T00:08:41;43.59;42.73;45.31;;
66459;Laerm;70605;52.550;4.730;2023-06-10T00:08:52;43.52;42.46;47.31;;
66459;Laerm;70605;52.550;4.730;2023-06-10T00:09:04;43.39;42.32;44.35;;
66459;Laerm;70605;52.550;4.730;2023-06-10T00:09:15;43.35;42.39;44.34;;
66459;Laerm;70605;52.550;4.730;2023-06-10T00:09:25;43.32;42.47;44.49;;
66459;Laerm;70605;52.550;4.730;2023-06-10T00:09:37;43.48;42.02;44.86;;
66459;Laerm;70605;52.550;4.730;2023-06-10T00:09:47;43.60;42.72;45.38;;
66459;Laerm;70605;52.550;4.730;2023-06-10T00:09:58;43.50;42.45;46.05;;
66459;Laerm;70605;52.550;4.730;2023-06-10T00:10:09;43.51;42.67;45.96;;
66459;Laerm;70605;52.550;4.730;2023-06-10T00:10:20;43.59;42.41;45.08;;
66459;Laerm;70605;52.550;4.730;2023-06-10T00:10:30;43.80;42.54;46.98;;
66459;Laerm;70605;52.550;4.730;2023-06-10T00:10:41;43.69;42.39;46.87;;
66459;Laerm;70605;52.550;4.730;2023-06-10T00:10:51;43.54;42.64;44.54;;
66459;Laerm;70605;52.550;4.730;2023-06-10T00:11:01;43.69;42.65;44.88;;
66459;Laerm;70605;52.550;4.730;2023-06-10T00:11:12;43.79;42.62;45.85;;
66459;Laerm;70605;52.550;4.730;2023-06-10T00:11:22;43.62;42.43;45.48;;
66459;Laerm;70605;52.550;4.730;2023-06-10T00:11:32;43.57;42.59;44.79;;
66459;Laerm;70605;52.550;4.730;2023-06-10T00:11:42;43.70;42.32;45.36;;
66459;Laerm;70605;52.550;4.730;2023-06-10T00:11:53;43.77;42.70;45.66;;
66459;Laerm;70605;52.550;4.730;2023-06-10T00:12:03;43.74;42.59;45.47;;
66459;Laerm;70605;52.550;4.730;2023-06-10T00:12:14;43.46;42.56;44.62;;
66459;Laerm;70605;52.550;4.730;2023-06-10T00:12:27;43.38;42.21;44.52;;
66459;Laerm;70605;52.550;4.730;2023-06-10T00:12:39;43.43;42.20;44.93;;
66459;Laerm;70605;52.550;4.730;2023-06-10T00:12:50;43.56;42.66;45.93;;
66459;Laerm;70605;52.550;4.730;2023-06-10T00:13:05;43.59;42.50;49.29;;
66459;Laerm;70605;52.550;4.730;2023-06-10T00:13:18;43.65;42.62;46.92;;
66459;Laerm;70605;52.550;4.730;2023-06-10T00:13:28;43.50;42.39;45.51;;
66459;Laerm;70605;52.550;4.730;2023-06-10T00:13:39;43.58;42.72;44.78;;
66459;Laerm;70605;52.550;4.730;2023-06-10T00:13:49;44.68;42.71;56.59;;
66459;Laerm;70605;52.550;4.730;2023-06-10T00:14:00;43.51;42.52;45.19;;
66459;Laerm;70605;52.550;4.730;2023-06-10T00:14:10;43.66;42.41;45.42;;
66459;Laerm;70605;52.550;4.730;2023-06-10T00:14:20;44.01;42.86;45.44;;
66459;Laerm;70605;52.550;4.730;2023-06-10T00:14:31;43.91;42.73;45.17;;
66459;Laerm;70605;52.550;4.730;2023-06-10T00:14:41;43.90;42.80;46.75;;
66459;Laerm;70605;52.550;4.730;2023-06-10T00:14:51;43.74;42.22;45.15;;
66459;Laerm;70605;52.550;4.730;2023-06-10T00:15:04;43.56;42.25;45.23;;
66459;Laerm;70605;52.550;4.730;2023-06-10T00:15:14;43.35;42.21;44.28;;
66459;Laerm;70605;52.550;4.730;2023-06-10T00:15:25;43.36;42.24;44.56;;
66459;Laerm;70605;52.550;4.730;2023-06-10T00:15:35;43.47;42.52;45.02;;
66459;Laerm;70605;52.550;4.730;2023-06-10T00:15:45;43.54;42.14;45.36;;
66459;Laerm;70605;52.550;4.730;2023-06-10T00:15:56;43.58;42.33;45.68;;
66459;Laerm;70605;52.550;4.730;2023-06-10T00:16:06;43.60;42.56;45.91;;
66459;Laerm;70605;52.550;4.730;2023-06-10T00:16:16;43.34;42.24;44.44;;
66459;Laerm;70605;52.550;4.730;2023-06-10T00:16:27;43.34;42.17;44.60;;
66459;Laerm;70605;52.550;4.730;2023-06-10T00:16:38;43.44;42.45;44.80;;
66459;Laerm;70605;52.550;4.730;2023-06-10T00:16:48;43.35;42.39;44.22;;
66459;Laerm;70605;52.550;4.730;2023-06-10T00:16:59;43.63;42.53;46.01;;
66459;Laerm;70605;52.550;4.730;2023-06-10T00:17:09;43.86;42.83;48.02;;
66459;Laerm;70605;52.550;4.730;2023-06-10T00:17:20;43.82;42.73;45.80;;
66459;Laerm;70605;52.550;4.730;2023-06-10T00:17:30;43.75;42.84;45.58;;
66459;Laerm;70605;52.550;4.730;2023-06-10T00:17:40;43.64;42.52;45.14;;
66459;Laerm;70605;52.550;4.730;2023-06-10T00:17:51;43.52;42.47;44.74;;
66459;Laerm;70605;52.550;4.730;2023-06-10T00:18:03;43.65;42.60;44.97;;
66459;Laerm;70605;52.550;4.730;2023-06-10T00:18:13;43.68;42.66;46.06;;
66459;Laerm;70605;52.550;4.730;2023-06-10T00:18:24;43.59;42.23;45.70;;
66459;Laerm;70605;52.550;4.730;2023-06-10T00:18:36;43.70;42.64;46.42;;
66459;Laerm;70605;52.550;4.730;2023-06-10T00:18:49;43.54;42.58;46.27;;
66459;Laerm;70605;52.550;4.730;2023-06-10T00:19:01;43.42;42.47;44.91;;
66459;Laerm;70605;52.550;4.730;2023-06-10T00:19:12;43.44;42.28;44.64;;
66459;Laerm;70605;52.550;4.730;2023-06-10T00:19:26;43.43;42.54;44.66;;
66459;Laerm;70605;52.550;4.730;2023-06-10T00:19:40;43.72;42.25;45.41;;
66459;Laerm;70605;52.550;4.730;2023-06-10T00:19:51;43.61;42.54;45.48;;
66459;Laerm;70605;52.550;4.730;2023-06-10T00:20:01;43.63;42.67;45.79;;
66459;Laerm;70605;52.550;4.730;2023-06-10T00:20:15;43.51;42.28;44.71;;
66459;Laerm;70605;52.550;4.730;2023-06-10T00:20:25;43.70;42.47;45.68;;
66459;Laerm;70605;52.550;4.730;2023-06-10T00:20:36;43.62;42.76;45.76;;
66459;Laerm;70605;52.550;4.730;2023-06-10T00:20:48;43.72;42.67;44.90;;
66459;Laerm;70605;52.550;4.730;2023-06-10T00:21:02;43.87;42.43;45.58;;
66459;Laerm;70605;52.550;4.730;2023-06-10T00:21:14;43.51;42.61;45.03;;
66459;Laerm;70605;52.550;4.730;2023-06-10T00:21:25;43.93;42.36;57.58;;
66459;Laerm;70605;52.550;4.730;2023-06-10T00:21:36;43.55;42.59;44.73;;
66459;Laerm;70605;52.550;4.730;2023-06-10T00:21:50;43.60;42.29;45.04;;
66459;Laerm;70605;52.550;4.730;2023-06-10T00:22:01;43.79;42.61;44.90;;
66459;Laerm;70605;52.550;4.730;2023-06-10T00:22:11;43.54;42.40;45.70;;
66459;Laerm;70605;52.550;4.730;2023-06-10T00:22:22;43.44;42.52;44.54;;
66459;Laerm;70605;52.550;4.730;2023-06-10T00:22:32;43.29;42.20;44.24;;
66459;Laerm;70605;52.550;4.730;2023-06-10T00:22:42;43.38;42.40;45.04;;
66459;Laerm;70605;52.550;4.730;2023-06-10T00:22:56;43.50;42.54;46.01;;
66459;Laerm;70605;52.550;4.730;2023-06-10T00:23:07;43.45;42.47;44.60;;
66459;Laerm;70605;52.550;4.730;2023-06-10T00:23:18;43.62;42.59;45.77;;
66459;Laerm;70605;52.550;4.730;2023-06-10T00:23:29;43.57;42.51;45.16;;
66459;Laerm;70605;52.550;4.730;2023-06-10T00:23:41;43.35;42.22;44.36;;
66459;Laerm;70605;52.550;4.730;2023-06-10T00:23:51;43.25;42.23;45.21;;
66459;Laerm;70605;52.550;4.730;2023-06-10T00:24:02;43.35;42.10;44.25;;
66459;Laerm;70605;52.550;4.730;2023-06-10T00:24:13;43.30;42.33;44.32;;
66459;Laerm;70605;52.550;4.730;2023-06-10T00:24:23;43.30;42.13;44.49;;
66459;Laerm;70605;52.550;4.730;2023-06-10T00:24:33;43.32;42.27;45.05;;
66459;Laerm;70605;52.550;4.730;2023-06-10T00:24:44;43.25;42.43;44.20;;
66459;Laerm;70605;52.550;4.730;2023-06-10T00:24:55;43.33;42.35;44.25;;
66459;Laerm;70605;52.550;4.730;2023-06-10T00:25:06;43.28;42.34;44.38;;
66459;Laerm;70605;52.550;4.730;2023-06-10T00:25:17;43.31;42.30;44.70;;
66459;Laerm;70605;52.550;4.730;2023-06-10T00:25:27;43.37;42.42;44.60;;
66459;Laerm;70605;52.550;4.730;2023-06-10T00:25:38;43.66;42.47;49.45;;
66459;Laerm;70605;52.550;4.730;2023-06-10T00:25:48;43.48;42.55;44.48;;
66459;Laerm;70605;52.550;4.730;2023-06-10T00:25:58;43.80;42.79;45.64;;
66459;Laerm;70605;52.550;4.730;2023-06-10T00:26:09;43.66;42.65;45.85;;
66459;Laerm;70605;52.550;4.730;2023-06-10T00:26:20;44.11;42.80;46.05;;
66459;Laerm;70605;52.550;4.730;2023-06-10T00:26:30;44.91;43.47;46.70;;
66459;Laerm;70605;52.550;4.730;2023-06-10T00:26:41;47.87;44.72;52.42;;
66459;Laerm;70605;52.550;4.730;2023-06-10T00:26:51;49.20;45.43;52.55;;
66459;Laerm;70605;52.550;4.730;2023-06-10T00:27:02;49.10;46.03;51.92;;
66459;Laerm;70605;52.550;4.730;2023-06-10T00:27:13;45.67;43.42;48.50;;
66459;Laerm;70605;52.550;4.730;2023-06-10T00:27:24;44.25;43.08;45.64;;
66459;Laerm;70605;52.550;4.730;2023-06-10T00:27:34;43.66;42.72;46.79;;
66459;Laerm;70605;52.550;4.730;2023-06-10T00:27:45;43.43;42.49;44.51;;
66459;Laerm;70605;52.550;4.730;2023-06-10T00:27:55;43.42;42.45;46.55;;
66459;Laerm;70605;52.550;4.730;2023-06-10T00:28:05;43.26;42.40;44.66;;
66459;Laerm;70605;52.550;4.730;2023-06-10T00:28:16;43.38;42.43;46.12;;
66459;Laerm;70605;52.550;4.730;2023-06-10T00:28:26;43.34;42.43;44.94;;
66459;Laerm;70605;52.550;4.730;2023-06-10T00:28:36;43.32;42.32;44.64;;
66459;Laerm;70605;52.550;4.730;2023-06-10T00:28:46;43.32;42.48;45.28;;
66459;Laerm;70605;52.550;4.730;2023-06-10T00:28:57;43.39;42.34;44.98;;
66459;Laerm;70605;52.550;4.730;2023-06-10T00:29:07;43.36;42.47;44.56;;
66459;Laerm;70605;52.550;4.730;2023-06-10T00:29:18;43.34;42.42;46.07;;
66459;Laerm;70605;52.550;4.730;2023-06-10T00:29:29;43.47;42.47;45.23;;
66459;Laerm;70605;52.550;4.730;2023-06-10T00:29:39;43.54;42.50;44.67;;
66459;Laerm;70605;52.550;4.730;2023-06-10T00:29:49;43.60;42.54;44.97;;
66459;Laerm;70605;52.550;4.730;2023-06-10T00:30:01;43.65;42.52;45.92;;
66459;Laerm;70605;52.550;4.730;2023-06-10T00:30:11;43.45;42.32;44.86;;
66459;Laerm;70605;52.550;4.730;2023-06-10T00:30:22;43.29;42.33;44.16;;
66459;Laerm;70605;52.550;4.730;2023-06-10T00:30:32;43.37;42.39;44.72;;
66459;Laerm;70605;52.550;4.730;2023-06-10T00:30:42;43.34;41.94;44.62;;
66459;Laerm;70605;52.550;4.730;2023-06-10T00:30:53;43.41;42.48;44.70;;
66459;Laerm;70605;52.550;4.730;2023-06-10T00:31:03;43.40;42.55;44.40;;
66459;Laerm;70605;52.550;4.730;2023-06-10T00:31:14;43.37;42.32;45.15;;
66459;Laerm;70605;52.550;4.730;2023-06-10T00:31:24;43.39;42.25;44.34;;
66459;Laerm;70605;52.550;4.730;2023-06-10T00:31:37;43.34;42.50;44.34;;
66459;Laerm;70605;52.550;4.730;2023-06-10T00:31:47;43.36;42.27;45.19;;
66459;Laerm;70605;52.550;4.730;2023-06-10T00:31:57;43.39;42.41;44.62;;
66459;Laerm;70605;52.550;4.730;2023-06-10T00:32:08;43.40;42.11;44.91;;
66459;Laerm;70605;52.550;4.730;2023-06-10T00:32:18;43.61;42.48;45.65;;
66459;Laerm;70605;52.550;4.730;2023-06-10T00:32:28;43.46;42.44;45.25;;
66459;Laerm;70605;52.550;4.730;2023-06-10T00:32:39;43.44;42.49;44.41;;
66459;Laerm;70605;52.550;4.730;2023-06-10T00:32:49;43.45;42.46;44.94;;
66459;Laerm;70605;52.550;4.730;2023-06-10T00:32:59;43.37;42.37;44.76;;
66459;Laerm;70605;52.550;4.730;2023-06-10T00:33:10;43.43;42.57;45.76;;
66459;Laerm;70605;52.550;4.730;2023-06-10T00:33:20;43.38;42.34;44.47;;
66459;Laerm;70605;52.550;4.730;2023-06-10T00:33:30;43.32;42.22;44.32;;
66459;Laerm;70605;52.550;4.730;2023-06-10T00:33:41;43.32;42.32;44.23;;
66459;Laerm;70605;52.550;4.730;2023-06-10T00:33:51;43.58;42.25;46.62;;
66459;Laerm;70605;52.550;4.730;2023-06-10T00:34:02;43.52;42.45;49.23;;
66459;Laerm;70605;52.550;4.730;2023-06-10T00:34:12;43.45;42.40;46.55;;
66459;Laerm;70605;52.550;4.730;2023-06-10T00:34:23;43.53;42.52;45.06;;
66459;Laerm;70605;52.550;4.730;2023-06-10T00:34:33;43.76;42.66;49.68;;
66459;Laerm;70605;52.550;4.730;2023-06-10T00:34:43;43.53;42.57;45.54;;
66459;Laerm;70605;52.550;4.730;2023-06-10T00:34:54;43.43;42.43;44.39;;
66459;Laerm;70605;52.550;4.730;2023-06-10T00:35:04;43.40;42.04;44.72;;
66459;Laerm;70605;52.550;4.730;2023-06-10T00:35:15;43.46;42.37;45.05;;
66459;Laerm;70605;52.550;4.730;2023-06-10T00:35:25;43.56;42.38;45.38;;
66459;Laerm;70605;52.550;4.730;2023-06-10T00:35:35;43.65;42.54;46.65;;
66459;Laerm;70605;52.550;4.730;2023-06-10T00:35:45;43.46;42.47;45.01;;
66459;Laerm;70605;52.550;4.730;2023-06-10T00:35:56;43.40;42.29;44.98;;
66459;Laerm;70605;52.550;4.730;2023-06-10T00:36:06;43.80;42.49;51.13;;
66459;Laerm;70605;52.550;4.730;2023-06-10T00:36:16;43.35;42.57;44.39;;
66459;Laerm;70605;52.550;4.730;2023-06-10T00:36:27;43.36;42.41;44.72;;
66459;Laerm;70605;52.550;4.730;2023-06-10T00:36:37;43.46;42.27;44.88;;
66459;Laerm;70605;52.550;4.730;2023-06-10T00:36:47;43.48;41.82;44.95;;
66459;Laerm;70605;52.550;4.730;2023-06-10T00:36:58;43.60;42.24;48.41;;
66459;Laerm;70605;52.550;4.730;2023-06-10T00:37:08;43.50;42.51;44.74;;
66459;Laerm;70605;52.550;4.730;2023-06-10T00:37:18;43.33;42.40;44.26;;
66459;Laerm;70605;52.550;4.730;2023-06-10T00:37:28;43.38;42.42;44.85;;
66459;Laerm;70605;52.550;4.730;2023-06-10T00:37:39;43.42;42.48;44.56;;
66459;Laerm;70605;52.550;4.730;2023-06-10T00:37:50;43.57;42.32;44.96;;
66459;Laerm;70605;52.550;4.730;2023-06-10T00:38:00;43.53;42.55;44.93;;
66459;Laerm;70605;52.550;4.730;2023-06-10T00:38:10;43.41;42.43;44.37;;
66459;Laerm;70605;52.550;4.730;2023-06-10T00:38:20;43.35;42.16;44.60;;
66459;Laerm;70605;52.550;4.730;2023-06-10T00:38:30;43.27;42.28;44.15;;
66459;Laerm;70605;52.550;4.730;2023-06-10T00:38:41;43.41;42.60;45.36;;
66459;Laerm;70605;52.550;4.730;2023-06-10T00:38:52;43.28;42.24;44.15;;
66459;Laerm;70605;52.550;4.730;2023-06-10T00:39:02;43.35;42.18;44.50;;
66459;Laerm;70605;52.550;4.730;2023-06-10T00:39:14;43.39;42.36;44.46;;
66459;Laerm;70605;52.550;4.730;2023-06-10T00:39:24;43.37;42.34;44.53;;
66459;Laerm;70605;52.550;4.730;2023-06-10T00:39:34;43.54;42.65;48.24;;
66459;Laerm;70605;52.550;4.730;2023-06-10T00:39:45;43.57;42.25;45.61;;
66459;Laerm;70605;52.550;4.730;2023-06-10T00:39:55;43.80;42.64;45.92;;
66459;Laerm;70605;52.550;4.730;2023-06-10T00:40:07;43.81;42.65;45.65;;
66459;Laerm;70605;52.550;4.730;2023-06-10T00:40:19;43.61;42.55;46.21;;
66459;Laerm;70605;52.550;4.730;2023-06-10T00:40:29;43.59;42.58;47.02;;
66459;Laerm;70605;52.550;4.730;2023-06-10T00:40:40;43.50;42.44;44.51;;
66459;Laerm;70605;52.550;4.730;2023-06-10T00:40:51;43.51;42.42;44.52;;
66459;Laerm;70605;52.550;4.730;2023-06-10T00:41:01;43.38;42.48;44.72;;
66459;Laerm;70605;52.550;4.730;2023-06-10T00:41:12;43.43;42.28;45.65;;
66459;Laerm;70605;52.550;4.730;2023-06-10T00:41:22;43.54;42.30;45.69;;
66459;Laerm;70605;52.550;4.730;2023-06-10T00:41:33;43.41;42.54;45.85;;
66459;Laerm;70605;52.550;4.730;2023-06-10T00:41:44;43.82;42.64;45.15;;
66459;Laerm;70605;52.550;4.730;2023-06-10T00:41:54;44.77;42.56;46.82;;
66459;Laerm;70605;52.550;4.730;2023-06-10T00:42:05;44.64;42.47;49.37;;
66459;Laerm;70605;52.550;4.730;2023-06-10T00:42:17;43.54;42.50;44.72;;
66459;Laerm;70605;52.550;4.730;2023-06-10T00:42:27;43.49;42.48;44.68;;
66459;Laerm;70605;52.550;4.730;2023-06-10T00:42:37;43.52;42.45;44.37;;
66459;Laerm;70605;52.550;4.730;2023-06-10T00:42:47;43.45;42.47;44.77;;
66459;Laerm;70605;52.550;4.730;2023-06-10T00:42:58;43.41;42.41;44.47;;
66459;Laerm;70605;52.550;4.730;2023-06-10T00:43:08;43.30;42.05;44.28;;
66459;Laerm;70605;52.550;4.730;2023-06-10T00:43:18;43.39;42.52;44.32;;
66459;Laerm;70605;52.550;4.730;2023-06-10T00:43:29;43.52;42.37;45.12;;
66459;Laerm;70605;52.550;4.730;2023-06-10T00:43:39;43.63;42.40;46.36;;
66459;Laerm;70605;52.550;4.730;2023-06-10T00:43:49;43.66;42.62;45.01;;
66459;Laerm;70605;52.550;4.730;2023-06-10T00:43:59;43.94;42.71;46.68;;
66459;Laerm;70605;52.550;4.730;2023-06-10T00:44:10;43.56;42.33;44.98;;
66459;Laerm;70605;52.550;4.730;2023-06-10T00:44:20;43.66;42.54;49.04;;
66459;Laerm;70605;52.550;4.730;2023-06-10T00:44:30;43.41;42.41;44.73;;
66459;Laerm;70605;52.550;4.730;2023-06-10T00:44:40;43.30;42.25;44.60;;
66459;Laerm;70605;52.550;4.730;2023-06-10T00:44:51;43.28;42.33;44.41;;
66459;Laerm;70605;52.550;4.730;2023-06-10T00:45:01;43.27;42.37;44.44;;
66459;Laerm;70605;52.550;4.730;2023-06-10T00:45:11;43.25;42.42;44.26;;
66459;Laerm;70605;52.550;4.730;2023-06-10T00:45:22;43.34;42.40;44.61;;
66459;Laerm;70605;52.550;4.730;2023-06-10T00:45:32;43.40;42.33;45.04;;
66459;Laerm;70605;52.550;4.730;2023-06-10T00:45:43;43.61;42.35;46.30;;
66459;Laerm;70605;52.550;4.730;2023-06-10T00:45:53;43.74;42.50;46.29;;
66459;Laerm;70605;52.550;4.730;2023-06-10T00:46:03;43.65;42.61;45.06;;
66459;Laerm;70605;52.550;4.730;2023-06-10T00:46:13;43.44;42.29;44.53;;
66459;Laerm;70605;52.550;4.730;2023-06-10T00:46:24;43.57;42.56;45.45;;
66459;Laerm;70605;52.550;4.730;2023-06-10T00:46:36;43.53;42.34;44.62;;
66459;Laerm;70605;52.550;4.730;2023-06-10T00:46:47;43.46;42.43;44.65;;
66459;Laerm;70605;52.550;4.730;2023-06-10T00:47:00;43.63;42.61;46.11;;
66459;Laerm;70605;52.550;4.730;2023-06-10T00:47:10;43.78;42.72;45.20;;
66459;Laerm;70605;52.550;4.730;2023-06-10T00:47:20;43.82;42.52;46.52;;
66459;Laerm;70605;52.550;4.730;2023-06-10T00:47:31;43.65;42.25;45.75;;
66459;Laerm;70605;52.550;4.730;2023-06-10T00:47:41;43.53;42.66;45.00;;
66459;Laerm;70605;52.550;4.730;2023-06-10T00:47:52;43.51;42.49;44.50;;
66459;Laerm;70605;52.550;4.730;2023-06-10T00:48:02;43.90;42.62;47.34;;
66459;Laerm;70605;52.550;4.730;2023-06-10T00:48:13;43.83;42.51;45.70;;
66459;Laerm;70605;52.550;4.730;2023-06-10T00:48:23;43.72;42.75;45.36;;
66459;Laerm;70605;52.550;4.730;2023-06-10T00:48:34;43.94;42.84;47.13;;
66459;Laerm;70605;52.550;4.730;2023-06-10T00:48:45;43.82;42.59;48.33;;
66459;Laerm;70605;52.550;4.730;2023-06-10T00:48:55;43.65;42.48;45.27;;
66459;Laerm;70605;52.550;4.730;2023-06-10T00:49:06;43.73;42.74;45.25;;
66459;Laerm;70605;52.550;4.730;2023-06-10T00:49:16;43.57;42.08;46.05;;
66459;Laerm;70605;52.550;4.730;2023-06-10T00:49:26;43.62;42.52;46.35;;
66459;Laerm;70605;52.550;4.730;2023-06-10T00:49:37;43.57;42.57;46.43;;
66459;Laerm;70605;52.550;4.730;2023-06-10T00:49:47;43.44;42.39;45.78;;
66459;Laerm;70605;52.550;4.730;2023-06-10T00:49:59;43.61;42.45;46.89;;
66459;Laerm;70605;52.550;4.730;2023-06-10T00:50:09;43.54;42.50;45.50;;
66459;Laerm;70605;52.550;4.730;2023-06-10T00:50:20;43.95;42.58;54.02;;
66459;Laerm;70605;52.550;4.730;2023-06-10T00:50:31;43.93;42.74;46.32;;
66459;Laerm;70605;52.550;4.730;2023-06-10T00:50:41;43.85;42.46;46.82;;
66459;Laerm;70605;52.550;4.730;2023-06-10T00:50:52;43.80;42.53;45.27;;
66459;Laerm;70605;52.550;4.730;2023-06-10T00:51:03;43.72;42.59;45.62;;
66459;Laerm;70605;52.550;4.730;2023-06-10T00:51:15;43.59;42.10;44.91;;
66459;Laerm;70605;52.550;4.730;2023-06-10T00:51:26;43.58;42.74;45.10;;
66459;Laerm;70605;52.550;4.730;2023-06-10T00:51:36;43.45;42.09;45.91;;
66459;Laerm;70605;52.550;4.730;2023-06-10T00:51:47;43.57;42.18;45.28;;
66459;Laerm;70605;52.550;4.730;2023-06-10T00:51:57;43.56;42.57;45.88;;
66459;Laerm;70605;52.550;4.730;2023-06-10T00:52:08;43.66;42.78;45.15;;
66459;Laerm;70605;52.550;4.730;2023-06-10T00:52:18;43.61;42.31;44.74;;
66459;Laerm;70605;52.550;4.730;2023-06-10T00:52:30;43.82;42.54;45.23;;
66459;Laerm;70605;52.550;4.730;2023-06-10T00:52:41;43.67;42.49;45.16;;
66459;Laerm;70605;52.550;4.730;2023-06-10T00:52:54;43.55;42.61;45.10;;
66459;Laerm;70605;52.550;4.730;2023-06-10T00:53:05;43.45;42.60;44.89;;
66459;Laerm;70605;52.550;4.730;2023-06-10T00:53:16;43.27;42.29;44.33;;
66459;Laerm;70605;52.550;4.730;2023-06-10T00:53:26;43.32;42.35;45.01;;
66459;Laerm;70605;52.550;4.730;2023-06-10T00:53:40;43.33;42.41;45.87;;
66459;Laerm;70605;52.550;4.730;2023-06-10T00:53:51;43.45;42.48;44.60;;
66459;Laerm;70605;52.550;4.730;2023-06-10T00:54:02;43.57;42.60;45.03;;
66459;Laerm;70605;52.550;4.730;2023-06-10T00:54:13;43.65;42.54;46.27;;
66459;Laerm;70605;52.550;4.730;2023-06-10T00:54:23;43.90;42.61;45.82;;
66459;Laerm;70605;52.550;4.730;2023-06-10T00:54:34;44.02;42.57;45.62;;
66459;Laerm;70605;52.550;4.730;2023-06-10T00:54:44;43.56;42.42;45.24;;
66459;Laerm;70605;52.550;4.730;2023-06-10T00:54:54;43.45;42.39;44.53;;
66459;Laerm;70605;52.550;4.730;2023-06-10T00:55:05;43.46;42.46;44.90;;
66459;Laerm;70605;52.550;4.730;2023-06-10T00:55:16;43.41;42.38;46.05;;
66459;Laerm;70605;52.550;4.730;2023-06-10T00:55:27;43.38;42.41;46.42;;
66459;Laerm;70605;52.550;4.730;2023-06-10T00:55:37;43.67;42.54;47.82;;
66459;Laerm;70605;52.550;4.730;2023-06-10T00:55:48;43.69;42.30;45.82;;
66459;Laerm;70605;52.550;4.730;2023-06-10T00:55:58;44.59;42.73;52.60;;
66459;Laerm;70605;52.550;4.730;2023-06-10T00:56:09;43.53;42.40;44.84;;
66459;Laerm;70605;52.550;4.730;2023-06-10T00:56:20;43.51;42.42;44.76;;
66459;Laerm;70605;52.550;4.730;2023-06-10T00:56:31;43.57;42.54;45.35;;
66459;Laerm;70605;52.550;4.730;2023-06-10T00:56:42;43.34;42.20;44.46;;
66459;Laerm;70605;52.550;4.730;2023-06-10T00:56:53;43.52;42.41;49.51;;
66459;Laerm;70605;52.550;4.730;2023-06-10T00:57:04;43.82;42.31;52.57;;
66459;Laerm;70605;52.550;4.730;2023-06-10T00:57:15;44.71;42.65;51.79;;
66459;Laerm;70605;52.550;4.730;2023-06-10T00:57:26;43.39;41.88;44.77;;
66459;Laerm;70605;52.550;4.730;2023-06-10T00:57:36;43.48;42.24;44.39;;
66459;Laerm;70605;52.550;4.730;2023-06-10T00:57:47;43.38;42.50;45.85;;
66459;Laerm;70605;52.550;4.730;2023-06-10T00:57:58;43.33;42.22;44.92;;
66459;Laerm;70605;52.550;4.730;2023-06-10T00:58:08;43.43;42.14;45.35;;
66459;Laerm;70605;52.550;4.730;2023-06-10T00:58:19;43.44;42.47;44.54;;
66459;Laerm;70605;52.550;4.730;2023-06-10T00:58:29;43.60;42.31;45.62;;
66459;Laerm;70605;52.550;4.730;2023-06-10T00:58:41;43.38;42.36;44.42;;
66459;Laerm;70605;52.550;4.730;2023-06-10T00:58:51;43.43;42.32;45.44;;
66459;Laerm;70605;52.550;4.730;2023-06-10T00:59:02;43.63;42.40;45.65;;
66459;Laerm;70605;52.550;4.730;2023-06-10T00:59:12;43.64;42.46;45.56;;
66459;Laerm;70605;52.550;4.730;2023-06-10T00:59:24;43.65;42.45;45.65;;
66459;Laerm;70605;52.550;4.730;2023-06-10T00:59:35;43.76;42.54;45.64;;
66459;Laerm;70605;52.550;4.730;2023-06-10T00:59:47;43.61;42.47;45.44;;
66459;Laerm;70605;52.550;4.730;2023-06-10T00:59:57;43.48;42.46;44.75;;
66459;Laerm;70605;52.550;4.730;2023-06-10T01:00:08;43.69;42.55;51.49;;
66459;Laerm;70605;52.550;4.730;2023-06-10T01:00:18;43.62;42.56;45.31;;